sensor_id;sensor_type;location;lat;lon;timestamp;temperature;humidity
51613;DHT22;37694;51.748;14.326;2023-01-10T00:00:39;22.50;45.70
51613;DHT22;37694;51.748;14.326;2023-01-10T00:03:08;22.40;45.60
51613;DHT22;37694;51.748;14.326;2023-01-10T00:05:35;22.40;45.70
51613;DHT22;37694;51.748;14.326;2023-01-10T00:08:01;22.40;45.60
51613;DHT22;37694;51.748;14.326;2023-01-10T00:10:28;22.40;45.70
51613;DHT22;37694;51.748;14.326;2023-01-10T00:12:54;22.40;45.70
51613;DHT22;37694;51.748;14.326;2023-01-10T00:15:38;22.40;45.60
51613;DHT22;37694;51.748;14.326;2023-01-10T00:18:04;22.30;45.70
51613;DHT22;37694;51.748;14.326;2023-01-10T00:20:30;22.30;45.70
51613;DHT22;37694;51.748;14.326;2023-01-10T00:22:56;22.30;45.60
51613;DHT22;37694;51.748;14.326;2023-01-10T00:25:22;22.30;45.60
51613;DHT22;37694;51.748;14.326;2023-01-10T00:27:48;22.30;45.60
51613;DHT22;37694;51.748;14.326;2023-01-10T00:30:18;22.30;45.60
51613;DHT22;37694;51.748;14.326;2023-01-10T00:32:44;22.30;45.50
51613;DHT22;37694;51.748;14.326;2023-01-10T00:35:11;22.30;45.50
51613;DHT22;37694;51.748;14.326;2023-01-10T00:37:38;22.30;45.60
51613;DHT22;37694;51.748;14.326;2023-01-10T00:40:07;22.30;45.60
51613;DHT22;37694;51.748;14.326;2023-01-10T00:42:35;22.30;45.60
51613;DHT22;37694;51.748;14.326;2023-01-10T00:45:20;22.30;45.60
51613;DHT22;37694;51.748;14.326;2023-01-10T00:47:47;22.20;45.60
51613;DHT22;37694;51.748;14.326;2023-01-10T00:50:13;22.20;45.60
51613;DHT22;37694;51.748;14.326;2023-01-10T00:52:38;22.20;45.60
51613;DHT22;37694;51.748;14.326;2023-01-10T00:55:04;22.20;45.60
51613;DHT22;37694;51.748;14.326;2023-01-10T00:57:30;22.20;45.60
51613;DHT22;37694;51.748;14.326;2023-01-10T00:59:56;22.10;45.50
51613;DHT22;37694;51.748;14.326;2023-01-10T01:02:22;22.10;45.60
51613;DHT22;37694;51.748;14.326;2023-01-10T01:04:48;22.10;45.50
51613;DHT22;37694;51.748;14.326;2023-01-10T01:07:14;22.10;46.40
51613;DHT22;37694;51.748;14.326;2023-01-10T01:09:39;22.10;45.60
51613;DHT22;37694;51.748;14.326;2023-01-10T01:12:25;22.10;45.60
51613;DHT22;37694;51.748;14.326;2023-01-10T01:14:51;22.10;45.60
51613;DHT22;37694;51.748;14.326;2023-01-10T01:17:17;22.10;45.60
51613;DHT22;37694;51.748;14.326;2023-01-10T01:19:43;22.10;45.60
51613;DHT22;37694;51.748;14.326;2023-01-10T01:22:08;22.00;45.50
51613;DHT22;37694;51.748;14.326;2023-01-10T01:24:34;22.00;45.60
51613;DHT22;37694;51.748;14.326;2023-01-10T01:27:00;22.00;45.50
51613;DHT22;37694;51.748;14.326;2023-01-10T01:29:25;22.00;45.60
51613;DHT22;37694;51.748;14.326;2023-01-10T01:31:51;22.00;45.60
51613;DHT22;37694;51.748;14.326;2023-01-10T01:34:17;22.00;45.60
51613;DHT22;37694;51.748;14.326;2023-01-10T01:36:42;22.00;45.50
51613;DHT22;37694;51.748;14.326;2023-01-10T01:39:08;22.00;45.60
51613;DHT22;37694;51.748;14.326;2023-01-10T01:41:34;22.00;45.50
51613;DHT22;37694;51.748;14.326;2023-01-10T01:44:18;21.90;46.00
51613;DHT22;37694;51.748;14.326;2023-01-10T01:46:50;22.00;45.60
51613;DHT22;37694;51.748;14.326;2023-01-10T01:49:21;21.90;45.50
51613;DHT22;37694;51.748;14.326;2023-01-10T01:51:52;21.90;45.50
51613;DHT22;37694;51.748;14.326;2023-01-10T01:54:20;21.90;45.50
51613;DHT22;37694;51.748;14.326;2023-01-10T01:56:57;21.90;45.60
51613;DHT22;37694;51.748;14.326;2023-01-10T01:59:33;21.90;45.60
51613;DHT22;37694;51.748;14.326;2023-01-10T02:02:13;21.90;45.60
51613;DHT22;37694;51.748;14.326;2023-01-10T02:07:25;21.90;45.60
51613;DHT22;37694;51.748;14.326;2023-01-10T02:09:57;21.90;45.70
51613;DHT22;37694;51.748;14.326;2023-01-10T02:12:25;21.80;45.60
51613;DHT22;37694;51.748;14.326;2023-01-10T02:14:53;21.80;45.60
51613;DHT22;37694;51.748;14.326;2023-01-10T02:17:19;21.80;45.60
51613;DHT22;37694;51.748;14.326;2023-01-10T02:19:56;21.80;45.60
51613;DHT22;37694;51.748;14.326;2023-01-10T02:31:23;21.80;45.60
51613;DHT22;37694;51.748;14.326;2023-01-10T02:36:45;21.70;45.70
51613;DHT22;37694;51.748;14.326;2023-01-10T02:42:14;21.70;45.70
51613;DHT22;37694;51.748;14.326;2023-01-10T02:47:39;21.70;45.80
51613;DHT22;37694;51.748;14.326;2023-01-10T02:52:49;21.70;45.60
51613;DHT22;37694;51.748;14.326;2023-01-10T02:55:16;21.60;45.70
51613;DHT22;37694;51.748;14.326;2023-01-10T02:58:00;21.60;45.90
51613;DHT22;37694;51.748;14.326;2023-01-10T03:09:19;21.60;45.70
51613;DHT22;37694;51.748;14.326;2023-01-10T03:11:27;21.60;45.60
51613;DHT22;37694;51.748;14.326;2023-01-10T03:14:11;21.60;45.70
51613;DHT22;37694;51.748;14.326;2023-01-10T03:16:40;21.60;45.80
51613;DHT22;37694;51.748;14.326;2023-01-10T03:19:31;21.60;45.70
51613;DHT22;37694;51.748;14.326;2023-01-10T03:22:01;21.60;45.60
51613;DHT22;37694;51.748;14.326;2023-01-10T03:24:35;21.60;45.80
51613;DHT22;37694;51.748;14.326;2023-01-10T03:27:11;21.60;45.70
51613;DHT22;37694;51.748;14.326;2023-01-10T03:29:49;21.60;45.60
51613;DHT22;37694;51.748;14.326;2023-01-10T03:32:18;21.50;45.70
51613;DHT22;37694;51.748;14.326;2023-01-10T03:34:45;21.50;45.80
51613;DHT22;37694;51.748;14.326;2023-01-10T03:40:19;21.50;45.60
51613;DHT22;37694;51.748;14.326;2023-01-10T03:43:58;21.50;45.60
51613;DHT22;37694;51.748;14.326;2023-01-10T03:46:41;21.50;45.80
51613;DHT22;37694;51.748;14.326;2023-01-10T03:49:05;21.50;45.80
51613;DHT22;37694;51.748;14.326;2023-01-10T03:51:34;21.50;45.90
51613;DHT22;37694;51.748;14.326;2023-01-10T03:54:02;21.50;45.90
51613;DHT22;37694;51.748;14.326;2023-01-10T03:56:28;21.50;45.90
51613;DHT22;37694;51.748;14.326;2023-01-10T03:58:54;21.40;45.80
51613;DHT22;37694;51.748;14.326;2023-01-10T04:01:20;21.40;45.80
51613;DHT22;37694;51.748;14.326;2023-01-10T04:03:45;21.40;45.90
51613;DHT22;37694;51.748;14.326;2023-01-10T04:06:11;21.40;45.90
51613;DHT22;37694;51.748;14.326;2023-01-10T04:08:37;21.40;45.70
51613;DHT22;37694;51.748;14.326;2023-01-10T04:11:02;21.40;46.20
51613;DHT22;37694;51.748;14.326;2023-01-10T04:13:28;21.50;46.10
51613;DHT22;37694;51.748;14.326;2023-01-10T04:15:54;21.50;46.00
51613;DHT22;37694;51.748;14.326;2023-01-10T04:18:21;21.60;45.90
51613;DHT22;37694;51.748;14.326;2023-01-10T04:20:46;21.70;45.80
51613;DHT22;37694;51.748;14.326;2023-01-10T04:23:12;21.80;45.70
51613;DHT22;37694;51.748;14.326;2023-01-10T04:25:38;21.80;45.60
51613;DHT22;37694;51.748;14.326;2023-01-10T04:28:04;21.90;45.60
51613;DHT22;37694;51.748;14.326;2023-01-10T04:30:29;22.00;45.50
51613;DHT22;37694;51.748;14.326;2023-01-10T04:32:55;22.10;46.30
51613;DHT22;37694;51.748;14.326;2023-01-10T04:35:21;22.20;45.40
51613;DHT22;37694;51.748;14.326;2023-01-10T04:37:46;22.30;45.40
51613;DHT22;37694;51.748;14.326;2023-01-10T04:40:12;22.30;45.30
51613;DHT22;37694;51.748;14.326;2023-01-10T04:42:41;22.40;45.30
51613;DHT22;37694;51.748;14.326;2023-01-10T04:45:07;22.50;45.30
51613;DHT22;37694;51.748;14.326;2023-01-10T04:47:36;22.50;45.30
51613;DHT22;37694;51.748;14.326;2023-01-10T04:50:01;22.60;45.20
51613;DHT22;37694;51.748;14.326;2023-01-10T04:52:27;22.70;45.10
51613;DHT22;37694;51.748;14.326;2023-01-10T04:54:53;22.70;45.00
51613;DHT22;37694;51.748;14.326;2023-01-10T04:57:18;22.80;45.00
51613;DHT22;37694;51.748;14.326;2023-01-10T04:59:44;22.80;44.90
51613;DHT22;37694;51.748;14.326;2023-01-10T05:02:10;22.90;44.90
51613;DHT22;37694;51.748;14.326;2023-01-10T05:04:36;22.90;44.90
51613;DHT22;37694;51.748;14.326;2023-01-10T05:07:01;23.00;44.80
51613;DHT22;37694;51.748;14.326;2023-01-10T05:09:27;23.10;44.60
51613;DHT22;37694;51.748;14.326;2023-01-10T05:11:52;23.20;44.60
51613;DHT22;37694;51.748;14.326;2023-01-10T05:14:18;23.20;44.60
51613;DHT22;37694;51.748;14.326;2023-01-10T05:16:44;23.30;44.50
51613;DHT22;37694;51.748;14.326;2023-01-10T05:19:09;23.30;44.40
51613;DHT22;37694;51.748;14.326;2023-01-10T05:21:35;23.40;44.40
51613;DHT22;37694;51.748;14.326;2023-01-10T05:24:01;23.40;44.30
51613;DHT22;37694;51.748;14.326;2023-01-10T05:26:26;23.50;44.20
51613;DHT22;37694;51.748;14.326;2023-01-10T05:28:52;23.50;44.10
51613;DHT22;37694;51.748;14.326;2023-01-10T05:31:18;23.60;44.20
51613;DHT22;37694;51.748;14.326;2023-01-10T05:33:45;23.60;44.10
51613;DHT22;37694;51.748;14.326;2023-01-10T05:36:11;23.60;44.10
51613;DHT22;37694;51.748;14.326;2023-01-10T05:38:37;23.60;44.10
51613;DHT22;37694;51.748;14.326;2023-01-10T05:41:03;23.60;44.10
51613;DHT22;37694;51.748;14.326;2023-01-10T05:43:28;23.70;44.30
51613;DHT22;37694;51.748;14.326;2023-01-10T05:45:54;23.60;44.20
51613;DHT22;37694;51.748;14.326;2023-01-10T05:48:20;23.60;44.20
51613;DHT22;37694;51.748;14.326;2023-01-10T05:50:47;23.60;44.30
51613;DHT22;37694;51.748;14.326;2023-01-10T05:53:13;23.60;44.30
51613;DHT22;37694;51.748;14.326;2023-01-10T05:55:39;23.60;44.40
51613;DHT22;37694;51.748;14.326;2023-01-10T05:58:04;23.50;45.50
51613;DHT22;37694;51.748;14.326;2023-01-10T06:00:30;23.60;44.40
51613;DHT22;37694;51.748;14.326;2023-01-10T06:02:56;23.50;44.40
51613;DHT22;37694;51.748;14.326;2023-01-10T06:05:23;23.50;44.80
51613;DHT22;37694;51.748;14.326;2023-01-10T06:07:49;23.50;44.30
51613;DHT22;37694;51.748;14.326;2023-01-10T06:10:15;23.50;44.30
51613;DHT22;37694;51.748;14.326;2023-01-10T06:12:42;23.40;44.40
51613;DHT22;37694;51.748;14.326;2023-01-10T06:15:08;23.40;44.30
51613;DHT22;37694;51.748;14.326;2023-01-10T06:17:34;23.40;44.30
51613;DHT22;37694;51.748;14.326;2023-01-10T06:20:00;23.40;44.40
51613;DHT22;37694;51.748;14.326;2023-01-10T06:22:26;23.30;44.30
51613;DHT22;37694;51.748;14.326;2023-01-10T06:24:52;23.30;45.10
51613;DHT22;37694;51.748;14.326;2023-01-10T06:27:19;23.30;44.30
51613;DHT22;37694;51.748;14.326;2023-01-10T06:29:46;23.30;44.50
51613;DHT22;37694;51.748;14.326;2023-01-10T06:32:11;23.30;45.10
51613;DHT22;37694;51.748;14.326;2023-01-10T06:34:37;23.30;45.00
51613;DHT22;37694;51.748;14.326;2023-01-10T06:37:03;23.20;45.60
51613;DHT22;37694;51.748;14.326;2023-01-10T06:39:28;23.20;45.60
51613;DHT22;37694;51.748;14.326;2023-01-10T06:41:54;23.20;44.90
51613;DHT22;37694;51.748;14.326;2023-01-10T06:44:20;23.10;44.80
51613;DHT22;37694;51.748;14.326;2023-01-10T06:46:45;23.10;44.80
51613;DHT22;37694;51.748;14.326;2023-01-10T06:49:11;23.10;45.00
51613;DHT22;37694;51.748;14.326;2023-01-10T06:51:36;23.10;45.60
51613;DHT22;37694;51.748;14.326;2023-01-10T06:54:02;23.10;45.30
51613;DHT22;37694;51.748;14.326;2023-01-10T06:56:28;23.10;45.40
51613;DHT22;37694;51.748;14.326;2023-01-10T06:58:53;23.10;45.50
51613;DHT22;37694;51.748;14.326;2023-01-10T07:01:20;23.10;46.00
51613;DHT22;37694;51.748;14.326;2023-01-10T07:03:46;23.10;46.10
51613;DHT22;37694;51.748;14.326;2023-01-10T07:06:13;23.00;45.90
51613;DHT22;37694;51.748;14.326;2023-01-10T07:08:44;23.10;46.10
51613;DHT22;37694;51.748;14.326;2023-01-10T07:11:11;23.00;46.10
51613;DHT22;37694;51.748;14.326;2023-01-10T07:13:37;23.00;46.30
51613;DHT22;37694;51.748;14.326;2023-01-10T07:16:05;23.00;46.70
51613;DHT22;37694;51.748;14.326;2023-01-10T07:18:33;23.00;46.50
51613;DHT22;37694;51.748;14.326;2023-01-10T07:20:59;23.00;46.60
51613;DHT22;37694;51.748;14.326;2023-01-10T07:23:24;23.00;46.40
51613;DHT22;37694;51.748;14.326;2023-01-10T07:25:50;23.00;45.80
51613;DHT22;37694;51.748;14.326;2023-01-10T07:28:16;23.00;45.50
51613;DHT22;37694;51.748;14.326;2023-01-10T07:30:42;22.90;45.80
51613;DHT22;37694;51.748;14.326;2023-01-10T07:33:07;22.90;45.70
51613;DHT22;37694;51.748;14.326;2023-01-10T07:35:33;22.90;45.80
51613;DHT22;37694;51.748;14.326;2023-01-10T07:38:00;22.90;45.70
51613;DHT22;37694;51.748;14.326;2023-01-10T07:40:28;22.90;45.80
51613;DHT22;37694;51.748;14.326;2023-01-10T07:42:58;22.90;45.80
51613;DHT22;37694;51.748;14.326;2023-01-10T07:45:24;22.90;45.70
51613;DHT22;37694;51.748;14.326;2023-01-10T07:47:58;22.80;45.70
51613;DHT22;37694;51.748;14.326;2023-01-10T07:50:25;22.80;45.70
51613;DHT22;37694;51.748;14.326;2023-01-10T07:52:51;22.80;45.70
51613;DHT22;37694;51.748;14.326;2023-01-10T07:55:17;22.80;45.70
51613;DHT22;37694;51.748;14.326;2023-01-10T07:57:43;22.80;45.70
51613;DHT22;37694;51.748;14.326;2023-01-10T08:00:09;22.80;45.70
51613;DHT22;37694;51.748;14.326;2023-01-10T08:02:35;22.70;45.70
51613;DHT22;37694;51.748;14.326;2023-01-10T08:05:01;22.70;45.70
51613;DHT22;37694;51.748;14.326;2023-01-10T08:07:30;22.70;45.70
51613;DHT22;37694;51.748;14.326;2023-01-10T08:09:56;22.70;45.80
51613;DHT22;37694;51.748;14.326;2023-01-10T08:12:22;22.70;45.80
51613;DHT22;37694;51.748;14.326;2023-01-10T08:14:50;22.70;45.80
51613;DHT22;37694;51.748;14.326;2023-01-10T08:17:16;22.70;45.90
51613;DHT22;37694;51.748;14.326;2023-01-10T08:19:41;22.60;45.80
51613;DHT22;37694;51.748;14.326;2023-01-10T08:22:07;22.60;45.80
51613;DHT22;37694;51.748;14.326;2023-01-10T08:24:33;22.60;45.80
51613;DHT22;37694;51.748;14.326;2023-01-10T08:26:59;22.60;45.80
51613;DHT22;37694;51.748;14.326;2023-01-10T08:29:25;22.60;45.90
51613;DHT22;37694;51.748;14.326;2023-01-10T08:31:51;22.60;45.90
51613;DHT22;37694;51.748;14.326;2023-01-10T08:34:17;22.60;45.80
51613;DHT22;37694;51.748;14.326;2023-01-10T08:36:42;22.50;45.80
51613;DHT22;37694;51.748;14.326;2023-01-10T08:39:08;22.60;45.90
51613;DHT22;37694;51.748;14.326;2023-01-10T08:41:34;22.50;45.90
51613;DHT22;37694;51.748;14.326;2023-01-10T08:43:59;22.50;45.90
51613;DHT22;37694;51.748;14.326;2023-01-10T08:46:25;22.50;45.90
51613;DHT22;37694;51.748;14.326;2023-01-10T08:48:51;22.50;45.90
51613;DHT22;37694;51.748;14.326;2023-01-10T08:51:17;22.50;45.90
51613;DHT22;37694;51.748;14.326;2023-01-10T08:53:43;22.50;45.90
51613;DHT22;37694;51.748;14.326;2023-01-10T08:56:09;22.40;45.90
51613;DHT22;37694;51.748;14.326;2023-01-10T08:58:35;22.50;45.90
51613;DHT22;37694;51.748;14.326;2023-01-10T09:01:05;22.40;45.90
51613;DHT22;37694;51.748;14.326;2023-01-10T09:03:32;22.40;45.90
51613;DHT22;37694;51.748;14.326;2023-01-10T09:05:59;22.40;46.00
51613;DHT22;37694;51.748;14.326;2023-01-10T09:08:25;22.40;46.00
51613;DHT22;37694;51.748;14.326;2023-01-10T09:10:50;22.40;46.00
51613;DHT22;37694;51.748;14.326;2023-01-10T09:13:16;22.40;46.10
51613;DHT22;37694;51.748;14.326;2023-01-10T09:15:42;22.40;46.10
51613;DHT22;37694;51.748;14.326;2023-01-10T09:18:10;22.30;46.00
51613;DHT22;37694;51.748;14.326;2023-01-10T09:20:38;22.30;46.00
51613;DHT22;37694;51.748;14.326;2023-01-10T09:23:05;22.30;46.00
51613;DHT22;37694;51.748;14.326;2023-01-10T09:25:33;22.30;46.00
51613;DHT22;37694;51.748;14.326;2023-01-10T09:28:00;22.30;46.10
51613;DHT22;37694;51.748;14.326;2023-01-10T09:30:27;22.30;46.10
51613;DHT22;37694;51.748;14.326;2023-01-10T09:32:53;22.30;46.10
51613;DHT22;37694;51.748;14.326;2023-01-10T09:35:20;22.20;46.00
51613;DHT22;37694;51.748;14.326;2023-01-10T09:37:46;22.30;46.10
51613;DHT22;37694;51.748;14.326;2023-01-10T09:51:46;22.20;46.20
51613;DHT22;37694;51.748;14.326;2023-01-10T09:54:50;22.20;46.20
51613;DHT22;37694;51.748;14.326;2023-01-10T09:57:20;22.10;46.10
51613;DHT22;37694;51.748;14.326;2023-01-10T09:59:47;22.10;46.10
51613;DHT22;37694;51.748;14.326;2023-01-10T10:02:44;22.10;46.10
51613;DHT22;37694;51.748;14.326;2023-01-10T10:05:21;22.10;46.10
51613;DHT22;37694;51.748;14.326;2023-01-10T10:07:54;22.10;46.10
51613;DHT22;37694;51.748;14.326;2023-01-10T10:10:26;22.10;46.20
51613;DHT22;37694;51.748;14.326;2023-01-10T10:13:09;22.10;46.10
51613;DHT22;37694;51.748;14.326;2023-01-10T10:23:39;22.00;46.20
51613;DHT22;37694;51.748;14.326;2023-01-10T10:34:23;22.00;46.20
51613;DHT22;37694;51.748;14.326;2023-01-10T10:39:22;22.00;46.20
51613;DHT22;37694;51.748;14.326;2023-01-10T10:41:51;22.00;46.20
51613;DHT22;37694;51.748;14.326;2023-01-10T10:47:00;22.00;46.20
51613;DHT22;37694;51.748;14.326;2023-01-10T10:50:15;22.00;46.30
51613;DHT22;37694;51.748;14.326;2023-01-10T10:52:43;22.00;46.20
51613;DHT22;37694;51.748;14.326;2023-01-10T10:55:17;21.90;46.30
51613;DHT22;37694;51.748;14.326;2023-01-10T10:57:45;21.90;46.20
51613;DHT22;37694;51.748;14.326;2023-01-10T11:00:16;21.90;46.20
51613;DHT22;37694;51.748;14.326;2023-01-10T11:02:50;21.90;46.20
51613;DHT22;37694;51.748;14.326;2023-01-10T11:05:20;21.90;46.20
51613;DHT22;37694;51.748;14.326;2023-01-10T11:07:46;21.90;46.30
51613;DHT22;37694;51.748;14.326;2023-01-10T11:10:20;21.90;46.20
51613;DHT22;37694;51.748;14.326;2023-01-10T11:13:22;21.90;46.20
51613;DHT22;37694;51.748;14.326;2023-01-10T11:15:50;21.90;46.20
51613;DHT22;37694;51.748;14.326;2023-01-10T11:18:19;21.90;46.30
51613;DHT22;37694;51.748;14.326;2023-01-10T11:21:17;21.90;46.30
51613;DHT22;37694;51.748;14.326;2023-01-10T11:23:49;21.90;46.20
51613;DHT22;37694;51.748;14.326;2023-01-10T11:26:29;21.80;46.20
51613;DHT22;37694;51.748;14.326;2023-01-10T11:29:23;21.80;46.20
51613;DHT22;37694;51.748;14.326;2023-01-10T11:31:50;21.80;46.10
51613;DHT22;37694;51.748;14.326;2023-01-10T11:34:25;21.80;46.20
51613;DHT22;37694;51.748;14.326;2023-01-10T11:37:04;21.80;46.20
51613;DHT22;37694;51.748;14.326;2023-01-10T11:39:42;21.80;46.20
51613;DHT22;37694;51.748;14.326;2023-01-10T11:44:48;21.80;46.20
51613;DHT22;37694;51.748;14.326;2023-01-10T11:47:14;21.80;46.30
51613;DHT22;37694;51.748;14.326;2023-01-10T11:49:46;21.80;46.20
51613;DHT22;37694;51.748;14.326;2023-01-10T11:52:27;21.80;46.20
51613;DHT22;37694;51.748;14.326;2023-01-10T11:54:58;21.80;46.20
51613;DHT22;37694;51.748;14.326;2023-01-10T11:57:29;21.70;46.20
51613;DHT22;37694;51.748;14.326;2023-01-10T12:00:00;21.70;46.20
51613;DHT22;37694;51.748;14.326;2023-01-10T12:05:02;21.80;46.30
51613;DHT22;37694;51.748;14.326;2023-01-10T12:07:28;21.70;46.20
51613;DHT22;37694;51.748;14.326;2023-01-10T12:09:56;21.70;46.30
51613;DHT22;37694;51.748;14.326;2023-01-10T12:14:56;21.70;46.20
51613;DHT22;37694;51.748;14.326;2023-01-10T12:17:30;21.70;46.30
51613;DHT22;37694;51.748;14.326;2023-01-10T12:20:02;21.70;46.20
51613;DHT22;37694;51.748;14.326;2023-01-10T12:22:39;21.70;46.30
51613;DHT22;37694;51.748;14.326;2023-01-10T12:27:55;21.70;46.30
51613;DHT22;37694;51.748;14.326;2023-01-10T12:30:34;21.70;46.30
51613;DHT22;37694;51.748;14.326;2023-01-10T12:33:10;21.70;46.20
51613;DHT22;37694;51.748;14.326;2023-01-10T12:36:03;21.70;46.30
51613;DHT22;37694;51.748;14.326;2023-01-10T12:39:25;21.70;46.20
51613;DHT22;37694;51.748;14.326;2023-01-10T12:44:19;21.60;46.30
51613;DHT22;37694;51.748;14.326;2023-01-10T12:46:50;21.60;46.30
51613;DHT22;37694;51.748;14.326;2023-01-10T12:52:40;21.60;46.40
51613;DHT22;37694;51.748;14.326;2023-01-10T12:55:20;21.60;46.20
51613;DHT22;37694;51.748;14.326;2023-01-10T12:57:49;21.60;46.30
51613;DHT22;37694;51.748;14.326;2023-01-10T13:02:51;21.60;46.30
51613;DHT22;37694;51.748;14.326;2023-01-10T13:05:21;21.60;46.40
51613;DHT22;37694;51.748;14.326;2023-01-10T13:07:49;21.60;46.30
51613;DHT22;37694;51.748;14.326;2023-01-10T13:10:21;21.60;46.30
51613;DHT22;37694;51.748;14.326;2023-01-10T13:12:57;21.60;46.30
51613;DHT22;37694;51.748;14.326;2023-01-10T13:15:40;21.60;46.20
51613;DHT22;37694;51.748;14.326;2023-01-10T13:20:41;21.60;46.40
51613;DHT22;37694;51.748;14.326;2023-01-10T13:23:34;21.60;46.40
51613;DHT22;37694;51.748;14.326;2023-01-10T13:26:07;21.60;46.20
51613;DHT22;37694;51.748;14.326;2023-01-10T13:28:36;21.60;46.40
51613;DHT22;37694;51.748;14.326;2023-01-10T13:31:21;21.50;46.30
51613;DHT22;37694;51.748;14.326;2023-01-10T13:34:05;21.60;46.20
51613;DHT22;37694;51.748;14.326;2023-01-10T13:36:37;21.50;46.30
51613;DHT22;37694;51.748;14.326;2023-01-10T13:39:05;21.50;46.40
51613;DHT22;37694;51.748;14.326;2023-01-10T13:52:50;21.50;46.30
51613;DHT22;37694;51.748;14.326;2023-01-10T14:06:34;21.50;46.30
51613;DHT22;37694;51.748;14.326;2023-01-10T14:09:32;21.40;46.40
51613;DHT22;37694;51.748;14.326;2023-01-10T14:14:50;21.40;46.30
51613;DHT22;37694;51.748;14.326;2023-01-10T14:17:27;21.40;46.40
51613;DHT22;37694;51.748;14.326;2023-01-10T14:20:05;21.40;46.30
51613;DHT22;37694;51.748;14.326;2023-01-10T14:22:34;21.40;46.30
51613;DHT22;37694;51.748;14.326;2023-01-10T14:25:04;21.40;46.40
51613;DHT22;37694;51.748;14.326;2023-01-10T14:27:49;21.40;46.30
51613;DHT22;37694;51.748;14.326;2023-01-10T14:30:26;21.40;46.30
51613;DHT22;37694;51.748;14.326;2023-01-10T14:32:55;21.40;46.30
51613;DHT22;37694;51.748;14.326;2023-01-10T14:35:23;21.40;46.30
51613;DHT22;37694;51.748;14.326;2023-01-10T14:37:57;21.40;46.30
51613;DHT22;37694;51.748;14.326;2023-01-10T14:40:43;21.40;46.30
51613;DHT22;37694;51.748;14.326;2023-01-10T14:43:19;21.40;46.20
51613;DHT22;37694;51.748;14.326;2023-01-10T14:46:00;21.40;46.30
51613;DHT22;37694;51.748;14.326;2023-01-10T14:48:33;21.30;46.20
51613;DHT22;37694;51.748;14.326;2023-01-10T14:51:07;21.30;46.30
51613;DHT22;37694;51.748;14.326;2023-01-10T14:53:33;21.30;46.20
51613;DHT22;37694;51.748;14.326;2023-01-10T14:55:58;21.30;46.20
51613;DHT22;37694;51.748;14.326;2023-01-10T14:58:24;21.30;46.20
51613;DHT22;37694;51.748;14.326;2023-01-10T15:00:52;21.30;46.20
51613;DHT22;37694;51.748;14.326;2023-01-10T15:03:19;21.30;46.20
51613;DHT22;37694;51.748;14.326;2023-01-10T15:05:56;21.30;46.20
51613;DHT22;37694;51.748;14.326;2023-01-10T15:08:27;21.30;46.10
51613;DHT22;37694;51.748;14.326;2023-01-10T15:11:03;21.30;46.20
51613;DHT22;37694;51.748;14.326;2023-01-10T15:13:34;21.30;46.20
51613;DHT22;37694;51.748;14.326;2023-01-10T15:16:01;21.30;46.20
51613;DHT22;37694;51.748;14.326;2023-01-10T15:18:36;21.30;46.20
51613;DHT22;37694;51.748;14.326;2023-01-10T15:21:04;21.20;46.30
51613;DHT22;37694;51.748;14.326;2023-01-10T15:23:43;21.20;46.20
51613;DHT22;37694;51.748;14.326;2023-01-10T15:28:41;21.30;46.80
51613;DHT22;37694;51.748;14.326;2023-01-10T15:31:08;21.40;47.10
51613;DHT22;37694;51.748;14.326;2023-01-10T15:33:36;21.40;46.90
51613;DHT22;37694;51.748;14.326;2023-01-10T15:36:07;21.60;46.80
51613;DHT22;37694;51.748;14.326;2023-01-10T15:38:37;21.70;46.90
51613;DHT22;37694;51.748;14.326;2023-01-10T15:41:07;21.80;47.00
51613;DHT22;37694;51.748;14.326;2023-01-10T15:43:34;21.90;46.90
51613;DHT22;37694;51.748;14.326;2023-01-10T15:46:02;22.00;46.90
51613;DHT22;37694;51.748;14.326;2023-01-10T15:48:33;22.10;46.80
51613;DHT22;37694;51.748;14.326;2023-01-10T15:51:32;22.20;46.70
51613;DHT22;37694;51.748;14.326;2023-01-10T15:54:08;22.30;46.80
51613;DHT22;37694;51.748;14.326;2023-01-10T15:56:57;22.40;46.70
51613;DHT22;37694;51.748;14.326;2023-01-10T15:59:47;22.40;46.70
51613;DHT22;37694;51.748;14.326;2023-01-10T16:02:19;22.40;46.40
51613;DHT22;37694;51.748;14.326;2023-01-10T16:04:55;22.50;46.40
51613;DHT22;37694;51.748;14.326;2023-01-10T16:07:35;22.50;46.20
51613;DHT22;37694;51.748;14.326;2023-01-10T16:10:13;22.60;46.30
51613;DHT22;37694;51.748;14.326;2023-01-10T16:12:41;22.60;46.30
51613;DHT22;37694;51.748;14.326;2023-01-10T16:15:27;22.60;46.30
51613;DHT22;37694;51.748;14.326;2023-01-10T16:17:54;22.60;46.30
51613;DHT22;37694;51.748;14.326;2023-01-10T16:20:31;22.60;46.20
51613;DHT22;37694;51.748;14.326;2023-01-10T16:22:58;22.60;46.20
51613;DHT22;37694;51.748;14.326;2023-01-10T16:25:33;22.60;46.40
51613;DHT22;37694;51.748;14.326;2023-01-10T16:27:59;22.60;46.20
51613;DHT22;37694;51.748;14.326;2023-01-10T16:30:28;22.60;46.30
51613;DHT22;37694;51.748;14.326;2023-01-10T16:32:54;22.60;46.40
51613;DHT22;37694;51.748;14.326;2023-01-10T16:35:22;22.60;46.40
51613;DHT22;37694;51.748;14.326;2023-01-10T16:37:48;22.60;46.30
51613;DHT22;37694;51.748;14.326;2023-01-10T16:40:17;22.60;46.30
51613;DHT22;37694;51.748;14.326;2023-01-10T16:42:44;22.70;46.40
51613;DHT22;37694;51.748;14.326;2023-01-10T16:45:28;22.60;46.20
51613;DHT22;37694;51.748;14.326;2023-01-10T16:47:54;22.60;46.20
51613;DHT22;37694;51.748;14.326;2023-01-10T16:50:19;22.60;46.40
51613;DHT22;37694;51.748;14.326;2023-01-10T16:52:45;22.60;46.60
51613;DHT22;37694;51.748;14.326;2023-01-10T16:55:15;22.60;46.60
51613;DHT22;37694;51.748;14.326;2023-01-10T16:57:42;22.60;46.60
51613;DHT22;37694;51.748;14.326;2023-01-10T17:00:12;22.60;46.80
51613;DHT22;37694;51.748;14.326;2023-01-10T17:02:38;22.60;46.80
51613;DHT22;37694;51.748;14.326;2023-01-10T17:05:04;22.60;46.80
51613;DHT22;37694;51.748;14.326;2023-01-10T17:07:30;22.60;47.50
51613;DHT22;37694;51.748;14.326;2023-01-10T17:09:56;22.60;47.10
51613;DHT22;37694;51.748;14.326;2023-01-10T17:12:29;22.60;47.40
51613;DHT22;37694;51.748;14.326;2023-01-10T17:14:55;22.70;47.10
51613;DHT22;37694;51.748;14.326;2023-01-10T17:17:21;22.70;47.20
51613;DHT22;37694;51.748;14.326;2023-01-10T17:19:46;22.80;47.00
51613;DHT22;37694;51.748;14.326;2023-01-10T17:22:13;22.90;47.10
51613;DHT22;37694;51.748;14.326;2023-01-10T17:24:38;23.10;46.90
51613;DHT22;37694;51.748;14.326;2023-01-10T17:27:04;23.10;46.80
51613;DHT22;37694;51.748;14.326;2023-01-10T17:29:30;23.20;46.90